sensor_id;sensor_type;location;lat;lon;timestamp;pressure;altitude;pressure_sealevel;temperature;humidity
42169;BME280;27838;43.858;25.974;2023-08-20T00:00:52;101185.06;;;28.83;43.08
42169;BME280;27838;43.858;25.974;2023-08-20T00:03:18;101184.63;;;28.76;42.73
42169;BME280;27838;43.858;25.974;2023-08-20T00:05:45;101185.38;;;28.78;42.24
42169;BME280;27838;43.858;25.974;2023-08-20T00:08:12;101184.50;;;28.77;41.70
42169;BME280;27838;43.858;25.974;2023-08-20T00:10:38;101180.53;;;28.83;41.17
42169;BME280;27838;43.858;25.974;2023-08-20T00:13:05;101180.69;;;28.81;41.01
42169;BME280;27838;43.858;25.974;2023-08-20T00:15:31;101183.13;;;28.85;40.77
42169;BME280;27838;43.858;25.974;2023-08-20T00:17:58;101187.84;;;28.81;40.08
42169;BME280;27838;43.858;25.974;2023-08-20T00:20:25;101182.56;;;28.79;40.13
42169;BME280;27838;43.858;25.974;2023-08-20T00:22:53;101182.69;;;28.78;39.95
42169;BME280;27838;43.858;25.974;2023-08-20T00:25:20;101177.75;;;28.72;39.63
42169;BME280;27838;43.858;25.974;2023-08-20T00:27:46;101179.69;;;28.70;39.99
42169;BME280;27838;43.858;25.974;2023-08-20T00:30:13;101176.38;;;28.66;39.79
42169;BME280;27838;43.858;25.974;2023-08-20T00:32:40;101183.53;;;28.66;39.81
42169;BME280;27838;43.858;25.974;2023-08-20T00:35:06;101188.25;;;28.62;39.72
42169;BME280;27838;43.858;25.974;2023-08-20T00:37:33;101177.13;;;28.55;39.69
42169;BME280;27838;43.858;25.974;2023-08-20T00:40:00;101178.13;;;28.53;39.64
42169;BME280;27838;43.858;25.974;2023-08-20T00:42:29;101180.06;;;28.51;39.63
42169;BME280;27838;43.858;25.974;2023-08-20T00:44:56;101184.78;;;28.47;39.92
42169;BME280;27838;43.858;25.974;2023-08-20T00:47:22;101185.84;;;28.44;39.67
42169;BME280;27838;43.858;25.974;2023-08-20T00:49:49;101185.28;;;28.39;39.81
42169;BME280;27838;43.858;25.974;2023-08-20T00:52:16;101187.03;;;28.40;39.50
42169;BME280;27838;43.858;25.974;2023-08-20T00:54:45;101191.63;;;28.38;39.76
42169;BME280;27838;43.858;25.974;2023-08-20T00:57:13;101195.91;;;28.41;40.05
42169;BME280;27838;43.858;25.974;2023-08-20T00:59:40;101199.88;;;28.48;40.14
42169;BME280;27838;43.858;25.974;2023-08-20T01:02:08;101204.09;;;28.52;39.94
42169;BME280;27838;43.858;25.974;2023-08-20T01:04:35;101202.38;;;28.51;40.17
42169;BME280;27838;43.858;25.974;2023-08-20T01:12:28;101198.09;;;28.49;39.69
42169;BME280;27838;43.858;25.974;2023-08-20T01:14:55;101203.06;;;28.55;40.07
42169;BME280;27838;43.858;25.974;2023-08-20T01:17:22;101195.94;;;28.54;39.93
42169;BME280;27838;43.858;25.974;2023-08-20T01:19:48;101205.53;;;28.58;39.98
42169;BME280;27838;43.858;25.974;2023-08-20T01:22:30;101200.28;;;28.56;40.20
42169;BME280;27838;43.858;25.974;2023-08-20T01:28:32;101197.09;;;28.50;40.07
42169;BME280;27838;43.858;25.974;2023-08-20T01:31:00;101199.88;;;28.48;39.97
42169;BME280;27838;43.858;25.974;2023-08-20T01:33:28;101192.38;;;28.40;40.19
42169;BME280;27838;43.858;25.974;2023-08-20T01:35:55;101191.44;;;28.41;40.41
42169;BME280;27838;43.858;25.974;2023-08-20T01:38:22;101189.91;;;28.37;40.36
42169;BME280;27838;43.858;25.974;2023-08-20T01:40:49;101195.69;;;28.31;40.70
42169;BME280;27838;43.858;25.974;2023-08-20T01:43:15;101193.31;;;28.27;40.52
42169;BME280;27838;43.858;25.974;2023-08-20T01:45:42;101189.88;;;28.24;40.58
42169;BME280;27838;43.858;25.974;2023-08-20T01:48:08;101193.50;;;28.23;40.58
42169;BME280;27838;43.858;25.974;2023-08-20T01:50:35;101185.81;;;28.19;40.80
42169;BME280;27838;43.858;25.974;2023-08-20T01:53:02;101177.22;;;28.14;40.32
42169;BME280;27838;43.858;25.974;2023-08-20T01:55:29;101183.63;;;28.11;40.78
42169;BME280;27838;43.858;25.974;2023-08-20T01:57:56;101181.25;;;28.06;40.55
42169;BME280;27838;43.858;25.974;2023-08-20T02:00:22;101170.19;;;27.98;40.75
42169;BME280;27838;43.858;25.974;2023-08-20T02:02:49;101176.50;;;27.97;40.85
42169;BME280;27838;43.858;25.974;2023-08-20T02:05:15;101185.31;;;27.99;40.94
42169;BME280;27838;43.858;25.974;2023-08-20T02:07:42;101177.47;;;27.96;41.19
42169;BME280;27838;43.858;25.974;2023-08-20T02:10:08;101185.31;;;27.99;40.96
42169;BME280;27838;43.858;25.974;2023-08-20T02:12:35;101188.19;;;27.96;40.67
42169;BME280;27838;43.858;25.974;2023-08-20T02:15:02;101188.38;;;27.93;40.38
42169;BME280;27838;43.858;25.974;2023-08-20T02:17:29;101186.84;;;27.89;40.54
42169;BME280;27838;43.858;25.974;2023-08-20T02:19:55;101185.81;;;27.92;40.59
42169;BME280;27838;43.858;25.974;2023-08-20T02:22:22;101177.06;;;27.88;40.21
42169;BME280;27838;43.858;25.974;2023-08-20T02:24:48;101191.16;;;27.92;40.15
42169;BME280;27838;43.858;25.974;2023-08-20T02:27:15;101185.50;;;27.96;40.22
42169;BME280;27838;43.858;25.974;2023-08-20T02:29:41;101180.91;;;27.98;40.75
42169;BME280;27838;43.858;25.974;2023-08-20T02:32:08;101188.00;;;27.99;40.61
42169;BME280;27838;43.858;25.974;2023-08-20T02:34:34;101176.50;;;27.97;40.83
42169;BME280;27838;43.858;25.974;2023-08-20T02:37:01;101187.22;;;27.97;40.91
42169;BME280;27838;43.858;25.974;2023-08-20T02:39:27;101183.59;;;27.98;40.74
42169;BME280;27838;43.858;25.974;2023-08-20T02:41:54;101182.63;;;27.99;40.78
42169;BME280;27838;43.858;25.974;2023-08-20T02:44:20;101190.78;;;27.98;40.91
42169;BME280;27838;43.858;25.974;2023-08-20T02:46:47;101193.53;;;27.96;40.94
42169;BME280;27838;43.858;25.974;2023-08-20T02:49:13;101191.16;;;27.92;41.28
42169;BME280;27838;43.858;25.974;2023-08-20T02:51:43;101193.00;;;27.91;41.09
42169;BME280;27838;43.858;25.974;2023-08-20T02:54:09;101201.88;;;27.92;41.13
42169;BME280;27838;43.858;25.974;2023-08-20T02:56:36;101194.78;;;27.91;41.38
42169;BME280;27838;43.858;25.974;2023-08-20T02:59:03;101191.84;;;27.81;41.56
42169;BME280;27838;43.858;25.974;2023-08-20T03:01:30;101197.75;;;27.86;41.37
42169;BME280;27838;43.858;25.974;2023-08-20T03:03:56;101201.38;;;27.85;41.31
42169;BME280;27838;43.858;25.974;2023-08-20T03:06:23;101210.38;;;27.84;41.42
42169;BME280;27838;43.858;25.974;2023-08-20T03:08:49;101212.09;;;27.85;41.32
42169;BME280;27838;43.858;25.974;2023-08-20T03:11:16;101211.16;;;27.86;41.83
42169;BME280;27838;43.858;25.974;2023-08-20T03:13:44;101202.34;;;27.84;41.96
42169;BME280;27838;43.858;25.974;2023-08-20T03:16:10;101205.97;;;27.83;41.73
42169;BME280;27838;43.858;25.974;2023-08-20T03:18:37;101213.16;;;27.82;42.11
42169;BME280;27838;43.858;25.974;2023-08-20T03:21:04;101207.25;;;27.77;42.20
42169;BME280;27838;43.858;25.974;2023-08-20T03:23:30;101209.91;;;27.77;42.02
42169;BME280;27838;43.858;25.974;2023-08-20T03:25:58;101207.53;;;27.73;42.43
42169;BME280;27838;43.858;25.974;2023-08-20T03:28:25;101207.63;;;27.71;42.72
42169;BME280;27838;43.858;25.974;2023-08-20T03:30:51;101204.28;;;27.67;42.95
42169;BME280;27838;43.858;25.974;2023-08-20T03:33:18;101207.06;;;27.66;42.99
42169;BME280;27838;43.858;25.974;2023-08-20T03:35:45;101212.75;;;27.61;43.34
42169;BME280;27838;43.858;25.974;2023-08-20T03:38:12;101201.38;;;27.58;43.25
42169;BME280;27838;43.858;25.974;2023-08-20T03:40:38;101217.91;;;27.64;43.06
42169;BME280;27838;43.858;25.974;2023-08-20T03:43:05;101203.94;;;27.59;43.43
42169;BME280;27838;43.858;25.974;2023-08-20T03:45:32;101208.50;;;27.57;43.62
42169;BME280;27838;43.858;25.974;2023-08-20T03:47:58;101210.16;;;27.60;43.68
42169;BME280;27838;43.858;25.974;2023-08-20T03:50:25;101212.94;;;27.58;43.82
42169;BME280;27838;43.858;25.974;2023-08-20T03:52:51;101212.94;;;27.58;44.01
42169;BME280;27838;43.858;25.974;2023-08-20T03:55:18;101207.56;;;27.58;43.89
42169;BME280;27838;43.858;25.974;2023-08-20T03:57:44;101212.94;;;27.58;43.69
42169;BME280;27838;43.858;25.974;2023-08-20T04:00:11;101215.88;;;27.54;44.19
42169;BME280;27838;43.858;25.974;2023-08-20T04:02:38;101209.59;;;27.55;44.39
42169;BME280;27838;43.858;25.974;2023-08-20T04:05:05;101205.84;;;27.57;43.86
42169;BME280;27838;43.858;25.974;2023-08-20T04:07:31;101209.97;;;27.63;44.26
42169;BME280;27838;43.858;25.974;2023-08-20T04:09:58;101216.16;;;27.63;43.88
42169;BME280;27838;43.858;25.974;2023-08-20T04:12:24;101207.66;;;27.57;43.81
42169;BME280;27838;43.858;25.974;2023-08-20T04:14:51;101214.84;;;27.56;43.89
42169;BME280;27838;43.858;25.974;2023-08-20T04:17:18;101208.16;;;27.49;43.83
42169;BME280;27838;43.858;25.974;2023-08-20T04:19:45;101216.47;;;27.44;43.77
42169;BME280;27838;43.858;25.974;2023-08-20T04:22:11;101215.81;;;27.41;43.52
42169;BME280;27838;43.858;25.974;2023-08-20T04:24:38;101215.06;;;27.39;43.97
42169;BME280;27838;43.858;25.974;2023-08-20T04:27:05;101220.09;;;27.43;44.39
42169;BME280;27838;43.858;25.974;2023-08-20T04:29:32;101215.44;;;27.47;44.57
42169;BME280;27838;43.858;25.974;2023-08-20T04:31:59;101218.56;;;27.54;44.77
42169;BME280;27838;43.858;25.974;2023-08-20T04:34:26;101220.47;;;27.52;44.88
42169;BME280;27838;43.858;25.974;2023-08-20T04:36:52;101222.97;;;27.55;44.64
42169;BME280;27838;43.858;25.974;2023-08-20T04:39:19;101219.22;;;27.57;45.10
42169;BME280;27838;43.858;25.974;2023-08-20T04:41:45;101230.72;;;27.59;45.16
42169;BME280;27838;43.858;25.974;2023-08-20T04:44:12;101222.69;;;27.59;45.90
42169;BME280;27838;43.858;25.974;2023-08-20T04:46:38;101218.28;;;27.58;46.63
42169;BME280;27838;43.858;25.974;2023-08-20T04:49:05;101219.78;;;27.62;46.82
42169;BME280;27838;43.858;25.974;2023-08-20T04:51:31;101207.66;;;27.57;46.38
42169;BME280;27838;43.858;25.974;2023-08-20T04:53:58;101225.53;;;27.71;45.97
42169;BME280;27838;43.858;25.974;2023-08-20T04:56:24;101219.97;;;27.74;45.66
42169;BME280;27838;43.858;25.974;2023-08-20T04:58:51;101219.00;;;27.75;45.54
42169;BME280;27838;43.858;25.974;2023-08-20T05:01:17;101230.19;;;27.81;45.05
42169;BME280;27838;43.858;25.974;2023-08-20T05:03:44;101226.09;;;27.76;44.78
42169;BME280;27838;43.858;25.974;2023-08-20T05:06:10;101225.00;;;27.78;44.52
42169;BME280;27838;43.858;25.974;2023-08-20T05:08:37;101223.13;;;27.80;43.67
42169;BME280;27838;43.858;25.974;2023-08-20T05:11:03;101230.00;;;27.84;43.74
42169;BME280;27838;43.858;25.974;2023-08-20T05:13:30;101218.44;;;27.84;43.33
42169;BME280;27838;43.858;25.974;2023-08-20T05:15:57;101237.91;;;28.00;43.53
42169;BME280;27838;43.858;25.974;2023-08-20T05:18:23;101240.22;;;28.06;43.47
42169;BME280;27838;43.858;25.974;2023-08-20T05:20:52;101231.00;;;28.11;43.18
42169;BME280;27838;43.858;25.974;2023-08-20T05:23:18;101235.75;;;28.20;43.44
42169;BME280;27838;43.858;25.974;2023-08-20T05:25:45;101247.34;;;28.20;43.74
42169;BME280;27838;43.858;25.974;2023-08-20T05:28:11;101246.16;;;28.24;43.60
42169;BME280;27838;43.858;25.974;2023-08-20T05:30:38;101251.22;;;28.29;44.14
42169;BME280;27838;43.858;25.974;2023-08-20T05:33:04;101247.75;;;28.27;44.31
42169;BME280;27838;43.858;25.974;2023-08-20T05:35:32;101248.09;;;28.22;44.92
42169;BME280;27838;43.858;25.974;2023-08-20T05:37:58;101234.47;;;28.25;45.03
42169;BME280;27838;43.858;25.974;2023-08-20T05:40:25;101250.34;;;28.29;45.08
42169;BME280;27838;43.858;25.974;2023-08-20T05:42:51;101239.72;;;28.27;45.20
42169;BME280;27838;43.858;25.974;2023-08-20T05:45:18;101250.06;;;28.33;45.01
42169;BME280;27838;43.858;25.974;2023-08-20T05:47:44;101244.50;;;28.36;44.82
42169;BME280;27838;43.858;25.974;2023-08-20T05:50:11;101249.31;;;28.44;44.42
42169;BME280;27838;43.858;25.974;2023-08-20T05:52:37;101241.00;;;28.49;44.23
42169;BME280;27838;43.858;25.974;2023-08-20T05:55:04;101244.22;;;28.54;44.13
42169;BME280;27838;43.858;25.974;2023-08-20T05:57:32;101252.25;;;28.54;43.96
42169;BME280;27838;43.858;25.974;2023-08-20T05:59:58;101253.03;;;28.56;43.52
42169;BME280;27838;43.858;25.974;2023-08-20T06:02:25;101254.44;;;28.61;43.85
42169;BME280;27838;43.858;25.974;2023-08-20T06:04:51;101253.25;;;28.66;43.72
42169;BME280;27838;43.858;25.974;2023-08-20T06:07:18;101243.09;;;28.71;42.79
42169;BME280;27838;43.858;25.974;2023-08-20T06:09:44;101249.44;;;28.70;42.73
42169;BME280;27838;43.858;25.974;2023-08-20T06:12:11;101244.38;;;28.65;43.16
42169;BME280;27838;43.858;25.974;2023-08-20T06:14:37;101249.63;;;28.67;42.83
42169;BME280;27838;43.858;25.974;2023-08-20T06:17:04;101254.59;;;28.73;42.95
42169;BME280;27838;43.858;25.974;2023-08-20T06:19:31;101246.22;;;28.77;42.80
42169;BME280;27838;43.858;25.974;2023-08-20T06:21:58;101258.22;;;28.85;42.69
42169;BME280;27838;43.858;25.974;2023-08-20T06:24:24;101256.84;;;28.92;42.30
42169;BME280;27838;43.858;25.974;2023-08-20T06:26:51;101253.94;;;28.95;42.39
42169;BME280;27838;43.858;25.974;2023-08-20T06:29:18;101254.59;;;28.98;42.25
42169;BME280;27838;43.858;25.974;2023-08-20T06:31:47;101263.81;;;29.07;42.06
42169;BME280;27838;43.858;25.974;2023-08-20T06:34:13;101257.00;;;29.16;41.57
42169;BME280;27838;43.858;25.974;2023-08-20T06:36:40;101259.16;;;29.24;41.65
42169;BME280;27838;43.858;25.974;2023-08-20T06:39:06;101262.13;;;29.32;41.38
42169;BME280;27838;43.858;25.974;2023-08-20T06:41:34;101253.13;;;29.33;41.27
42169;BME280;27838;43.858;25.974;2023-08-20T06:44:01;101251.81;;;29.38;40.54
42169;BME280;27838;43.858;25.974;2023-08-20T06:46:27;101255.47;;;29.50;40.63
42169;BME280;27838;43.858;25.974;2023-08-20T06:48:54;101253.09;;;29.59;40.49
42169;BME280;27838;43.858;25.974;2023-08-20T06:51:21;101263.16;;;29.68;40.61
42169;BME280;27838;43.858;25.974;2023-08-20T06:53:48;101264.16;;;29.80;40.06
42169;BME280;27838;43.858;25.974;2023-08-20T06:56:15;101259.69;;;29.91;38.91
42169;BME280;27838;43.858;25.974;2023-08-20T06:58:42;101257.06;;;30.03;38.48
42169;BME280;27838;43.858;25.974;2023-08-20T07:01:09;101257.22;;;30.12;38.38
42169;BME280;27838;43.858;25.974;2023-08-20T07:03:39;101259.38;;;30.20;38.20
42169;BME280;27838;43.858;25.974;2023-08-20T07:06:07;101244.81;;;30.23;38.00
42169;BME280;27838;43.858;25.974;2023-08-20T07:08:35;101258.25;;;30.36;37.45
42169;BME280;27838;43.858;25.974;2023-08-20T07:11:02;101250.69;;;30.41;37.53
42169;BME280;27838;43.858;25.974;2023-08-20T07:13:28;101258.28;;;30.47;37.36
42169;BME280;27838;43.858;25.974;2023-08-20T07:15:55;101252.47;;;30.53;37.02
42169;BME280;27838;43.858;25.974;2023-08-20T07:18:21;101254.44;;;30.62;37.26
42169;BME280;27838;43.858;25.974;2023-08-20T07:20:51;101260.81;;;30.73;36.70
42169;BME280;27838;43.858;25.974;2023-08-20T07:23:17;101252.03;;;30.82;36.48
42169;BME280;27838;43.858;25.974;2023-08-20T07:25:44;101246.06;;;30.90;36.55
42169;BME280;27838;43.858;25.974;2023-08-20T07:28:12;101249.66;;;31.01;36.51
42169;BME280;27838;43.858;25.974;2023-08-20T07:30:38;101250.75;;;31.10;36.10
42169;BME280;27838;43.858;25.974;2023-08-20T07:33:06;101250.28;;;31.16;35.28
42169;BME280;27838;43.858;25.974;2023-08-20T07:35:33;101251.63;;;31.22;35.00
42169;BME280;27838;43.858;25.974;2023-08-20T07:38:00;101236.94;;;31.26;35.06
42169;BME280;27838;43.858;25.974;2023-08-20T07:40:27;101251.78;;;31.32;35.66
42169;BME280;27838;43.858;25.974;2023-08-20T07:42:53;101247.72;;;31.37;35.78
42169;BME280;27838;43.858;25.974;2023-08-20T07:45:21;101239.41;;;31.40;35.61
42169;BME280;27838;43.858;25.974;2023-08-20T07:47:48;101243.84;;;31.53;35.32
42169;BME280;27838;43.858;25.974;2023-08-20T07:50:14;101239.53;;;31.61;35.34
42169;BME280;27838;43.858;25.974;2023-08-20T07:52:41;101232.78;;;31.67;35.32
42169;BME280;27838;43.858;25.974;2023-08-20T07:55:08;101231.56;;;31.71;35.13
42169;BME280;27838;43.858;25.974;2023-08-20T07:57:34;101234.72;;;31.76;35.09
42169;BME280;27838;43.858;25.974;2023-08-20T08:00:01;101231.66;;;31.81;35.24
42169;BME280;27838;43.858;25.974;2023-08-20T08:02:29;101223.94;;;31.88;34.67
42169;BME280;27838;43.858;25.974;2023-08-20T08:04:55;101227.97;;;31.93;33.66
42169;BME280;27838;43.858;25.974;2023-08-20T08:07:22;101214.59;;;32.03;33.41
42169;BME280;27838;43.858;25.974;2023-08-20T08:09:48;101212.84;;;32.13;32.84
42169;BME280;27838;43.858;25.974;2023-08-20T08:12:15;101213.91;;;32.22;32.64
42169;BME280;27838;43.858;25.974;2023-08-20T08:14:42;101216.09;;;32.28;32.35
42169;BME280;27838;43.858;25.974;2023-08-20T08:17:08;101212.88;;;32.34;31.59
42169;BME280;27838;43.858;25.974;2023-08-20T08:19:35;101214.94;;;32.42;32.11
42169;BME280;27838;43.858;25.974;2023-08-20T08:22:01;101215.53;;;32.46;32.29
42169;BME280;27838;43.858;25.974;2023-08-20T08:24:28;101214.38;;;32.48;32.34
42169;BME280;27838;43.858;25.974;2023-08-20T08:26:55;101217.56;;;32.53;32.48
42169;BME280;27838;43.858;25.974;2023-08-20T08:29:21;101210.78;;;32.59;32.02
42169;BME280;27838;43.858;25.974;2023-08-20T08:31:48;101218.75;;;32.61;32.18
42169;BME280;27838;43.858;25.974;2023-08-20T08:34:14;101207.59;;;32.65;32.50
42169;BME280;27838;43.858;25.974;2023-08-20T08:36:41;101213.06;;;32.75;32.23
42169;BME280;27838;43.858;25.974;2023-08-20T08:39:07;101211.41;;;32.84;32.19
42169;BME280;27838;43.858;25.974;2023-08-20T08:41:35;101208.75;;;32.93;31.87
42169;BME280;27838;43.858;25.974;2023-08-20T08:44:06;101210.38;;;33.06;31.58
42169;BME280;27838;43.858;25.974;2023-08-20T08:46:35;101208.81;;;33.13;31.80
42169;BME280;27838;43.858;25.974;2023-08-20T08:49:02;101196.94;;;33.16;30.89
42169;BME280;27838;43.858;25.974;2023-08-20T08:51:30;101208.50;;;33.27;30.66
42169;BME280;27838;43.858;25.974;2023-08-20T08:53:57;101203.97;;;33.28;30.88
42169;BME280;27838;43.858;25.974;2023-08-20T08:56:23;101208.97;;;33.33;30.65
42169;BME280;27838;43.858;25.974;2023-08-20T08:58:50;101199.91;;;33.43;30.71
42169;BME280;27838;43.858;25.974;2023-08-20T09:01:17;101199.47;;;33.48;30.57
42169;BME280;27838;43.858;25.974;2023-08-20T09:03:43;101196.34;;;33.53;29.92
42169;BME280;27838;43.858;25.974;2023-08-20T09:06:10;101193.13;;;33.59;30.83
42169;BME280;27838;43.858;25.974;2023-08-20T09:08:36;101180.31;;;33.61;30.08
42169;BME280;27838;43.858;25.974;2023-08-20T09:11:03;101186.31;;;33.74;29.60
42169;BME280;27838;43.858;25.974;2023-08-20T09:15:59;101181.50;;;33.88;29.25
42169;BME280;27838;43.858;25.974;2023-08-20T09:18:29;101193.03;;;33.99;29.27
42169;BME280;27838;43.858;25.974;2023-08-20T09:20:57;101187.94;;;34.06;29.04
42169;BME280;27838;43.858;25.974;2023-08-20T09:23:28;101187.63;;;34.09;29.37
42169;BME280;27838;43.858;25.974;2023-08-20T09:25:54;101177.09;;;34.16;29.25
42169;BME280;27838;43.858;25.974;2023-08-20T09:28:21;101175.28;;;34.26;28.94
42169;BME280;27838;43.858;25.974;2023-08-20T09:30:58;101173.81;;;34.41;28.91
42169;BME280;27838;43.858;25.974;2023-08-20T09:33:27;101174.66;;;34.52;28.20
42169;BME280;27838;43.858;25.974;2023-08-20T09:35:53;101166.97;;;34.57;28.21
42169;BME280;27838;43.858;25.974;2023-08-20T09:38:21;101160.41;;;34.59;28.72
42169;BME280;27838;43.858;25.974;2023-08-20T09:40:49;101167.94;;;34.75;28.74
42169;BME280;27838;43.858;25.974;2023-08-20T09:43:18;101172.06;;;34.79;28.61
42169;BME280;27838;43.858;25.974;2023-08-20T09:45:46;101166.03;;;34.86;28.75
42169;BME280;27838;43.858;25.974;2023-08-20T09:48:17;101158.75;;;34.96;28.03
42169;BME280;27838;43.858;25.974;2023-08-20T09:50:46;101158.44;;;34.99;28.29
42169;BME280;27838;43.858;25.974;2023-08-20T09:56:07;101153.91;;;35.17;28.83
42169;BME280;27838;43.858;25.974;2023-08-20T09:58:37;101160.88;;;35.30;28.22
42169;BME280;27838;43.858;25.974;2023-08-20T10:01:05;101151.72;;;35.41;28.30
42169;BME280;27838;43.858;25.974;2023-08-20T10:03:33;101147.78;;;35.53;28.04
42169;BME280;27838;43.858;25.974;2023-08-20T10:06:00;101144.81;;;35.64;28.19
42169;BME280;27838;43.858;25.974;2023-08-20T10:08:27;101138.72;;;35.62;27.79
42169;BME280;27838;43.858;25.974;2023-08-20T10:10:54;101144.81;;;35.64;27.46
42169;BME280;27838;43.858;25.974;2023-08-20T10:13:21;101137.88;;;35.62;27.17
42169;BME280;27838;43.858;25.974;2023-08-20T10:15:48;101146.53;;;35.65;27.56
42169;BME280;27838;43.858;25.974;2023-08-20T10:18:19;101138.34;;;35.75;27.16
42169;BME280;27838;43.858;25.974;2023-08-20T10:20:46;101142.00;;;35.84;27.21
42169;BME280;27838;43.858;25.974;2023-08-20T10:23:12;101139.22;;;35.94;27.28
42169;BME280;27838;43.858;25.974;2023-08-20T10:25:42;101137.50;;;35.92;27.08
42169;BME280;27838;43.858;25.974;2023-08-20T10:28:26;101133.47;;;35.97;26.97
42169;BME280;27838;43.858;25.974;2023-08-20T10:31:10;101131.84;;;36.04;27.27
42169;BME280;27838;43.858;25.974;2023-08-20T10:36:17;101122.69;;;36.23;26.63
42169;BME280;27838;43.858;25.974;2023-08-20T10:38:48;101126.25;;;36.23;26.49
42169;BME280;27838;43.858;25.974;2023-08-20T10:41:15;101109.97;;;36.23;26.23
42169;BME280;27838;43.858;25.974;2023-08-20T10:43:47;101118.19;;;36.32;26.41
42169;BME280;27838;43.858;25.974;2023-08-20T10:46:24;101110.78;;;36.42;26.30
42169;BME280;27838;43.858;25.974;2023-08-20T10:48:58;101111.50;;;36.52;25.83
42169;BME280;27838;43.858;25.974;2023-08-20T10:56:59;101110.53;;;36.88;26.12
42169;BME280;27838;43.858;25.974;2023-08-20T10:59:27;101099.00;;;36.94;25.67
42169;BME280;27838;43.858;25.974;2023-08-20T11:01:56;101098.88;;;37.03;25.54
42169;BME280;27838;43.858;25.974;2023-08-20T11:04:24;101099.75;;;37.12;25.54
42169;BME280;27838;43.858;25.974;2023-08-20T11:06:56;101086.69;;;37.16;25.16
42169;BME280;27838;43.858;25.974;2023-08-20T11:09:24;101076.03;;;37.22;25.27
42169;BME280;27838;43.858;25.974;2023-08-20T11:11:52;101082.19;;;37.33;25.12
42169;BME280;27838;43.858;25.974;2023-08-20T11:14:20;101076.56;;;37.34;24.90
42169;BME280;27838;43.858;25.974;2023-08-20T11:16:48;101084.72;;;37.42;25.22
42169;BME280;27838;43.858;25.974;2023-08-20T11:19:19;101090.53;;;37.48;25.03
42169;BME280;27838;43.858;25.974;2023-08-20T11:21:45;101079.00;;;37.54;24.56
42169;BME280;27838;43.858;25.974;2023-08-20T11:24:13;101068.94;;;37.54;24.38
42169;BME280;27838;43.858;25.974;2023-08-20T11:26:41;101063.34;;;37.48;24.18
42169;BME280;27838;43.858;25.974;2023-08-20T11:29:12;101058.25;;;37.53;24.53
42169;BME280;27838;43.858;25.974;2023-08-20T11:31:41;101058.91;;;37.55;24.51
42169;BME280;27838;43.858;25.974;2023-08-20T11:34:07;101054.50;;;37.54;24.41
42169;BME280;27838;43.858;25.974;2023-08-20T11:36:34;101058.59;;;37.58;24.56
42169;BME280;27838;43.858;25.974;2023-08-20T11:39:02;101048.56;;;37.58;24.90
42169;BME280;27838;43.858;25.974;2023-08-20T11:41:28;101048.75;;;37.65;24.43
42169;BME280;27838;43.858;25.974;2023-08-20T11:43:55;101049.06;;;37.62;24.17
42169;BME280;27838;43.858;25.974;2023-08-20T11:46:23;101051.63;;;37.64;24.66
42169;BME280;27838;43.858;25.974;2023-08-20T11:49:04;101044.66;;;37.69;24.49
42169;BME280;27838;43.858;25.974;2023-08-20T11:51:49;101040.09;;;37.70;24.31
42169;BME280;27838;43.858;25.974;2023-08-20T11:54:18;101032.09;;;37.68;24.32
42169;BME280;27838;43.858;25.974;2023-08-20T11:56:46;101028.03;;;37.64;23.85
42169;BME280;27838;43.858;25.974;2023-08-20T11:59:14;101023.91;;;37.60;24.16
42169;BME280;27838;43.858;25.974;2023-08-20T12:01:41;101026.84;;;37.67;24.06
42169;BME280;27838;43.858;25.974;2023-08-20T12:04:09;101012.03;;;37.69;23.77
42169;BME280;27838;43.858;25.974;2023-08-20T12:06:37;101014.41;;;37.72;23.87
42169;BME280;27838;43.858;25.974;2023-08-20T12:09:20;101012.22;;;37.68;23.40
42169;BME280;27838;43.858;25.974;2023-08-20T12:11:51;101019.34;;;37.69;23.43
42169;BME280;27838;43.858;25.974;2023-08-20T12:14:21;101012.41;;;37.66;23.97
42169;BME280;27838;43.858;25.974;2023-08-20T12:16:48;101009.16;;;37.71;23.93
42169;BME280;27838;43.858;25.974;2023-08-20T12:19:16;101007.47;;;37.70;24.20
42169;BME280;27838;43.858;25.974;2023-08-20T12:21:43;101004.75;;;37.70;23.43
42169;BME280;27838;43.858;25.974;2023-08-20T12:24:10;101004.72;;;37.62;23.78
42169;BME280;27838;43.858;25.974;2023-08-20T12:26:37;100997.94;;;37.57;23.83
42169;BME280;27838;43.858;25.974;2023-08-20T12:29:04;100990.94;;;37.55;23.83
42169;BME280;27838;43.858;25.974;2023-08-20T12:31:32;100988.22;;;37.55;24.15
42169;BME280;27838;43.858;25.974;2023-08-20T12:33:58;100992.66;;;37.56;23.13
42169;BME280;27838;43.858;25.974;2023-08-20T12:36:25;100996.03;;;37.50;23.21
42169;BME280;27838;43.858;25.974;2023-08-20T12:38:52;100994.88;;;37.52;23.88
42169;BME280;27838;43.858;25.974;2023-08-20T12:41:19;100998.25;;;37.54;24.03
42169;BME280;27838;43.858;25.974;2023-08-20T12:43:46;100985.69;;;37.53;24.09
42169;BME280;27838;43.858;25.974;2023-08-20T12:46:12;100978.56;;;37.52;23.54
42169;BME280;27838;43.858;25.974;2023-08-20T12:48:39;100980.25;;;37.45;23.43
42169;BME280;27838;43.858;25.974;2023-08-20T12:51:06;100988.94;;;37.49;23.90
42169;BME280;27838;43.858;25.974;2023-08-20T12:53:32;100992.31;;;37.51;23.90
42169;BME280;27838;43.858;25.974;2023-08-20T12:55:59;100988.56;;;37.52;24.17
42169;BME280;27838;43.858;25.974;2023-08-20T12:58:25;100982.44;;;37.50;23.78
42169;BME280;27838;43.858;25.974;2023-08-20T13:00:52;100980.09;;;37.47;23.42
42169;BME280;27838;43.858;25.974;2023-08-20T13:03:19;100974.66;;;37.38;23.76